createdAt,value
2023-04-06T00:01:35.507Z,73.34
2023-04-06T00:04:02.111Z,73.61
2023-04-06T00:06:28.793Z,73.70
2023-04-06T00:08:55.609Z,73.90
2023-04-06T00:11:22.568Z,73.76
2023-04-06T00:13:49.204Z,73.76
2023-04-06T00:16:16.164Z,73.69
2023-04-06T00:18:42.811Z,73.97
2023-04-06T00:21:09.422Z,74.15
2023-04-06T00:23:36.073Z,74.07
2023-04-06T00:26:02.646Z,74.15
2023-04-06T00:28:30.991Z,74.11
2023-04-06T00:30:57.643Z,74.54
2023-04-06T00:33:24.647Z,74.47
2023-04-06T00:35:51.662Z,74.14
2023-04-06T00:38:18.310Z,74.33
2023-04-06T00:40:47.771Z,74.39
2023-04-06T00:43:14.540Z,74.26
2023-04-06T00:45:42.282Z,74.60
2023-04-06T00:48:09.653Z,74.97
2023-04-06T00:50:36.472Z,74.69
2023-04-06T00:53:03.069Z,75.07
2023-04-06T00:55:29.939Z,75.13
2023-04-06T00:57:59.957Z,75.56
2023-04-06T01:00:26.765Z,76.19
2023-04-06T01:02:56.523Z,75.23
2023-04-06T01:05:23.372Z,75.59
2023-04-06T01:07:50.018Z,75.65
2023-04-06T01:10:26.596Z,75.68
2023-04-06T01:12:53.140Z,75.84
2023-04-06T01:15:20.885Z,75.72
2023-04-06T01:17:47.502Z,76.15
2023-04-06T01:20:14.246Z,75.70
2023-04-06T01:22:41.121Z,75.78
2023-04-06T01:25:08.159Z,75.73
2023-04-06T01:27:34.710Z,75.58
2023-04-06T01:30:01.577Z,75.93
2023-04-06T01:32:28.376Z,76.04
2023-04-06T01:34:55.920Z,76.21
2023-04-06T01:37:22.515Z,75.98
2023-04-06T01:39:49.108Z,76.04
2023-04-06T01:42:15.695Z,76.15
2023-04-06T01:44:42.346Z,76.12
2023-04-06T01:47:08.919Z,76.32
2023-04-06T01:49:35.546Z,76.26
2023-04-06T01:52:02.165Z,76.43
2023-04-06T01:54:28.705Z,76.72
2023-04-06T01:56:55.325Z,76.54
2023-04-06T01:59:21.983Z,76.51
2023-04-06T02:01:48.680Z,76.65
2023-04-06T02:04:15.700Z,76.53
2023-04-06T02:06:42.483Z,76.45
2023-04-06T02:09:09.303Z,76.51
2023-04-06T02:11:36.667Z,77.75
2023-04-06T02:14:03.301Z,77.28
2023-04-06T02:16:49.944Z,77.42
2023-04-06T02:19:16.614Z,77.07
2023-04-06T02:21:43.348Z,77.21
2023-04-06T02:24:09.934Z,77.45
2023-04-06T02:26:36.522Z,77.32
2023-04-06T02:29:03.310Z,77.55
2023-04-06T02:31:29.912Z,77.29
2023-04-06T02:33:56.507Z,77.47
2023-04-06T02:36:23.073Z,77.24
2023-04-06T02:38:49.663Z,77.55
2023-04-06T02:41:16.314Z,77.51
2023-04-06T02:43:42.874Z,77.70
2023-04-06T02:46:09.515Z,77.35
2023-04-06T02:48:38.181Z,77.59
2023-04-06T02:51:04.892Z,77.81
2023-04-06T02:53:31.560Z,78.02
2023-04-06T02:55:58.143Z,77.94
2023-04-06T02:58:24.843Z,77.58
2023-04-06T03:00:51.394Z,77.53
2023-04-06T03:03:18.083Z,77.63
2023-04-06T03:05:44.746Z,77.53
2023-04-06T03:08:11.506Z,77.68
2023-04-06T03:10:38.084Z,77.60
2023-04-06T03:13:04.705Z,77.75
2023-04-06T03:15:31.310Z,78.04
2023-04-06T03:18:00.458Z,77.94
2023-04-06T03:20:27.254Z,78.14
2023-04-06T03:22:53.774Z,77.88
2023-04-06T03:25:20.500Z,78.06
2023-04-06T03:27:47.103Z,78.18
2023-04-06T03:30:13.845Z,77.99
2023-04-06T03:32:40.640Z,78.37
2023-04-06T03:35:07.410Z,78.45
2023-04-06T03:37:34.013Z,78.49
2023-04-06T03:40:00.572Z,78.30
2023-04-06T03:42:27.764Z,78.38
2023-04-06T03:44:54.407Z,78.56
2023-04-06T03:47:21.515Z,78.47
2023-04-06T03:49:48.139Z,78.64
2023-04-06T03:52:14.738Z,78.74
2023-04-06T03:54:41.411Z,78.79
2023-04-06T03:57:08.038Z,78.75
2023-04-06T03:59:34.680Z,78.78
2023-04-06T04:02:01.445Z,78.69
2023-04-06T04:04:28.022Z,78.90
2023-04-06T04:06:54.661Z,78.94
2023-04-06T04:09:21.306Z,78.40
2023-04-06T04:11:47.932Z,78.47
2023-04-06T04:14:14.574Z,78.55
2023-04-06T04:16:42.450Z,78.59
2023-04-06T04:19:09.476Z,78.72
2023-04-06T04:21:43.079Z,78.63
2023-04-06T04:24:09.727Z,78.46
2023-04-06T04:26:36.413Z,78.87
2023-04-06T04:29:03.083Z,78.62
2023-04-06T04:31:29.796Z,79.65
2023-04-06T04:33:56.439Z,79.07
2023-04-06T04:36:24.214Z,79.26
2023-04-06T04:38:50.886Z,78.68
2023-04-06T04:41:17.433Z,78.88
2023-04-06T04:43:44.145Z,78.82
2023-04-06T04:46:10.997Z,78.47
2023-04-06T04:48:37.618Z,78.47
2023-04-06T04:51:05.457Z,78.48
2023-04-06T04:53:32.281Z,78.65
2023-04-06T04:55:58.858Z,78.54
2023-04-06T04:58:25.532Z,78.66
2023-04-06T05:00:52.166Z,78.31
2023-04-06T05:03:26.010Z,78.29
2023-04-06T05:05:52.840Z,78.45
2023-04-06T05:08:19.598Z,78.31
2023-04-06T05:10:47.659Z,78.33
2023-04-06T05:13:14.275Z,78.26
2023-04-06T05:15:41.555Z,78.13
2023-04-06T05:18:08.758Z,78.25
2023-04-06T05:20:35.646Z,78.07
2023-04-06T05:23:02.528Z,78.13
2023-04-06T05:25:29.259Z,78.28
2023-04-06T05:27:55.921Z,77.97
2023-04-06T05:30:22.756Z,78.04
2023-04-06T05:32:49.361Z,77.97
2023-04-06T05:35:16.195Z,77.93
2023-04-06T05:37:42.823Z,78.05
2023-04-06T05:40:09.619Z,77.85
2023-04-06T05:42:43.604Z,77.64
2023-04-06T05:45:11.947Z,77.75
2023-04-06T05:47:38.571Z,77.67
2023-04-06T05:50:05.563Z,77.54
2023-04-06T05:52:32.107Z,77.53
2023-04-06T05:54:58.801Z,77.35
2023-04-06T05:57:25.473Z,77.42
2023-04-06T05:59:52.080Z,77.32
2023-04-06T06:02:18.685Z,77.25
2023-04-06T06:04:45.499Z,77.20
2023-04-06T06:07:12.061Z,77.10
2023-04-06T06:09:38.685Z,77.06
2023-04-06T06:12:05.368Z,77.21
2023-04-06T06:14:32.165Z,77.08
2023-04-06T06:16:58.753Z,77.07
2023-04-06T06:19:25.515Z,76.98
2023-04-06T06:21:52.137Z,76.86
2023-04-06T06:24:18.772Z,76.96
2023-04-06T06:26:45.390Z,76.76
2023-04-06T06:29:12.002Z,76.50
2023-04-06T06:31:38.698Z,76.41
2023-04-06T06:34:05.428Z,76.21
2023-04-06T06:36:32.848Z,75.17
2023-04-06T06:38:59.630Z,75.21
2023-04-06T06:41:27.150Z,75.03
2023-04-06T06:43:53.917Z,74.26
2023-04-06T06:46:21.669Z,73.98
2023-04-06T06:48:48.327Z,74.27
2023-04-06T06:51:14.934Z,73.56
2023-04-06T06:53:41.521Z,73.32
2023-04-06T06:56:08.099Z,73.47
2023-04-06T06:58:34.731Z,73.26
2023-04-06T07:01:01.460Z,73.27
2023-04-06T07:03:28.116Z,73.28
2023-04-06T07:05:55.152Z,72.87
2023-04-06T07:08:22.176Z,72.51
2023-04-06T07:10:49.048Z,72.62
2023-04-06T07:13:22.819Z,71.83
2023-04-06T07:15:52.692Z,71.91
2023-04-06T07:18:19.621Z,71.64
2023-04-06T07:20:46.440Z,70.46
2023-04-06T07:23:13.062Z,71.03
2023-04-06T07:25:39.802Z,71.01
2023-04-06T07:28:06.437Z,71.13
2023-04-06T07:30:33.948Z,70.15
2023-04-06T07:33:02.556Z,70.67
2023-04-06T07:35:31.190Z,70.76
2023-04-06T07:37:58.377Z,70.82
2023-04-06T07:40:25.147Z,70.80
2023-04-06T07:42:51.780Z,70.55
2023-04-06T07:45:18.567Z,70.76
2023-04-06T07:47:45.455Z,70.71
2023-04-06T07:50:12.126Z,70.53
2023-04-06T07:52:39.707Z,70.54
2023-04-06T07:55:06.458Z,70.49
2023-04-06T07:57:33.048Z,70.46
2023-04-06T07:59:59.643Z,70.39
2023-04-06T08:02:26.478Z,69.44
2023-04-06T08:04:53.161Z,63.62
2023-04-06T08:07:19.908Z,67.92
2023-04-06T08:09:46.482Z,63.52
2023-04-06T08:12:13.068Z,64.66
2023-04-06T08:14:39.701Z,67.39
2023-04-06T08:17:06.689Z,65.81
2023-04-06T08:19:33.395Z,65.93
2023-04-06T08:22:00.207Z,62.95
2023-04-06T08:24:26.850Z,65.71
2023-04-06T08:26:54.081Z,66.71
2023-04-06T08:29:20.759Z,66.69
2023-04-06T08:31:47.465Z,66.39
2023-04-06T08:34:14.564Z,66.47
2023-04-06T08:36:42.106Z,66.30
2023-04-06T08:39:08.780Z,66.04
2023-04-06T08:41:35.915Z,65.81
2023-04-06T08:44:03.722Z,65.88
2023-04-06T08:46:31.639Z,65.36
2023-04-06T08:48:59.737Z,64.71
2023-04-06T08:51:27.616Z,64.38
2023-04-06T08:53:57.556Z,63.32
2023-04-06T08:56:24.965Z,59.50
2023-04-06T08:58:53.406Z,62.85
2023-04-06T09:01:26.830Z,60.79
2023-04-06T09:03:57.164Z,59.25
2023-04-06T09:06:24.037Z,61.52
2023-04-06T09:08:50.668Z,60.90
2023-04-06T09:11:17.385Z,57.91
2023-04-06T09:13:46.807Z,60.09
2023-04-06T09:16:13.834Z,60.89
2023-04-06T09:18:41.158Z,52.29
2023-04-06T09:21:08.290Z,52.88
2023-04-06T09:23:34.998Z,59.30
2023-04-06T09:26:12.109Z,59.02
2023-04-06T09:28:58.321Z,50.36
2023-04-06T09:31:29.592Z,55.93
2023-04-06T09:33:57.374Z,58.69
2023-04-06T09:36:33.149Z,57.37
2023-04-06T09:39:00.761Z,58.10
2023-04-06T09:41:34.785Z,55.36
2023-04-06T09:44:05.399Z,57.08
2023-04-06T09:46:42.941Z,57.66
2023-04-06T09:49:18.602Z,57.94
2023-04-06T09:51:50.928Z,57.44
2023-04-06T09:54:19.788Z,55.94
2023-04-06T09:57:04.980Z,48.32
2023-04-06T09:59:31.790Z,54.84
2023-04-06T10:01:59.851Z,54.64
2023-04-06T10:04:38.410Z,53.91
2023-04-06T10:07:07.374Z,54.20
2023-04-06T10:09:37.112Z,54.01
2023-04-06T10:12:04.704Z,54.47
2023-04-06T10:14:32.319Z,51.13
2023-04-06T10:16:59.172Z,52.32
2023-04-06T10:19:29.082Z,52.58
2023-04-06T10:21:57.245Z,52.34
2023-04-06T10:24:23.911Z,51.27
2023-04-06T10:27:02.620Z,50.72
2023-04-06T10:29:29.607Z,48.79
2023-04-06T10:31:56.552Z,46.95
2023-04-06T10:34:23.321Z,45.26
2023-04-06T10:36:49.927Z,45.16
2023-04-06T10:39:25.328Z,43.08
2023-04-06T10:41:52.033Z,41.39
2023-04-06T10:44:22.774Z,40.03
2023-04-06T10:47:02.778Z,40.51
2023-04-06T10:49:29.374Z,40.03
2023-04-06T10:51:57.012Z,38.01
2023-04-06T10:54:25.356Z,37.14
2023-04-06T10:56:51.979Z,35.91
2023-04-06T10:59:22.692Z,34.62
2023-04-06T11:01:49.986Z,32.88
2023-04-06T11:04:18.739Z,34.07
2023-04-06T11:06:49.788Z,29.67
2023-04-06T11:09:29.432Z,33.08
2023-04-06T11:11:57.147Z,30.30
2023-04-06T11:14:24.179Z,29.72
2023-04-06T11:16:51.197Z,28.68
2023-04-06T11:19:18.313Z,28.60
2023-04-06T11:21:48.332Z,30.17
2023-04-06T11:24:22.291Z,27.86
2023-04-06T11:26:50.103Z,28.23
2023-04-06T11:29:17.752Z,28.68
2023-04-06T11:31:47.195Z,27.78
2023-04-06T11:34:17.010Z,28.60
2023-04-06T11:36:44.370Z,28.10
2023-04-06T11:39:11.612Z,26.88
2023-04-06T11:41:38.297Z,26.52
2023-04-06T11:44:06.585Z,20.84
2023-04-06T11:46:33.466Z,27.41
2023-04-06T11:49:01.659Z,25.80
2023-04-06T11:51:28.668Z,25.43
2023-04-06T11:53:56.060Z,24.77
2023-04-06T11:56:26.630Z,19.52
2023-04-06T11:58:54.033Z,24.58
2023-04-06T12:01:20.659Z,24.37
2023-04-06T12:03:47.776Z,23.52
2023-04-06T12:06:14.841Z,23.36
2023-04-06T12:08:42.039Z,23.08
2023-04-06T12:11:08.634Z,23.61
2023-04-06T12:13:35.400Z,23.96
2023-04-06T12:16:02.011Z,23.95
2023-04-06T12:18:28.869Z,23.13
2023-04-06T12:20:55.502Z,23.74
2023-04-06T12:23:22.161Z,22.84
2023-04-06T12:25:48.831Z,23.64
2023-04-06T12:28:15.468Z,22.09
2023-04-06T12:30:42.239Z,24.08
2023-04-06T12:33:08.898Z,23.39
2023-04-06T12:35:36.178Z,23.07
2023-04-06T12:38:03.362Z,23.17
2023-04-06T12:40:30.318Z,23.14
2023-04-06T12:42:57.019Z,22.73
2023-04-06T12:45:23.660Z,22.70
2023-04-06T12:47:50.319Z,21.89
2023-04-06T12:50:16.995Z,22.10
2023-04-06T12:52:43.552Z,21.74
2023-04-06T12:55:10.611Z,21.77
2023-04-06T12:57:38.163Z,21.40
2023-04-06T13:00:07.786Z,21.31
2023-04-06T13:02:35.993Z,21.57
2023-04-06T13:05:02.727Z,21.79
2023-04-06T13:07:29.873Z,21.80
2023-04-06T13:09:56.428Z,22.40
2023-04-06T13:12:23.360Z,22.03
2023-04-06T13:14:53.412Z,22.03
2023-04-06T13:17:20.145Z,21.35
2023-04-06T13:19:46.739Z,21.65
2023-04-06T13:22:13.280Z,21.96
2023-04-06T13:24:39.833Z,21.33
2023-04-06T13:27:06.895Z,21.09
2023-04-06T13:29:35.220Z,21.14
2023-04-06T13:32:01.864Z,21.59
2023-04-06T13:34:28.655Z,21.12
2023-04-06T13:36:55.514Z,21.37
2023-04-06T13:39:22.143Z,21.38
2023-04-06T13:41:48.758Z,21.89
2023-04-06T13:44:15.321Z,21.67
2023-04-06T13:46:41.960Z,21.16
2023-04-06T13:49:08.550Z,21.55
2023-04-06T13:51:35.141Z,19.82
2023-04-06T13:54:01.742Z,22.36
2023-04-06T13:56:28.440Z,21.88
2023-04-06T13:58:56.828Z,22.04
2023-04-06T14:01:23.576Z,21.59
2023-04-06T14:03:50.830Z,21.62
2023-04-06T14:08:47.817Z,21.65
2023-04-06T14:11:15.002Z,20.15
2023-04-06T14:13:42.945Z,22.57
2023-04-06T14:16:09.817Z,21.96
2023-04-06T14:18:37.786Z,20.13
2023-04-06T14:21:04.399Z,22.80
2023-04-06T14:23:31.223Z,22.53
2023-04-06T14:26:05.162Z,22.61
2023-04-06T14:28:32.290Z,22.77
2023-04-06T14:30:59.918Z,23.20
2023-04-06T14:33:27.112Z,23.00
2023-04-06T14:35:54.037Z,22.98
2023-04-06T14:38:20.621Z,23.13
2023-04-06T14:40:47.269Z,23.51
2023-04-06T14:43:13.826Z,23.86
2023-04-06T14:45:40.512Z,24.31
2023-04-06T14:48:07.829Z,24.60
2023-04-06T14:50:35.385Z,24.85
2023-04-06T14:53:02.121Z,25.12
2023-04-06T14:55:28.757Z,25.63
2023-04-06T14:57:55.369Z,25.55
2023-04-06T15:00:21.952Z,25.45
2023-04-06T15:02:48.947Z,26.07
2023-04-06T15:05:15.899Z,26.43
2023-04-06T15:07:42.428Z,26.85
2023-04-06T15:10:10.826Z,26.97
2023-04-06T15:12:39.208Z,27.25
2023-04-06T15:15:06.281Z,27.76
2023-04-06T15:17:32.904Z,27.45
2023-04-06T15:19:59.496Z,27.72
2023-04-06T15:22:26.202Z,28.07
2023-04-06T15:24:52.783Z,27.94
2023-04-06T15:27:19.387Z,28.17
2023-04-06T15:29:46.242Z,28.28
2023-04-06T15:32:13.439Z,28.76
2023-04-06T15:34:40.446Z,28.64
2023-04-06T15:37:07.300Z,28.68
2023-04-06T15:39:34.029Z,28.55
2023-04-06T15:42:01.173Z,28.71
2023-04-06T15:44:27.752Z,28.79
2023-04-06T15:46:54.377Z,28.99
2023-04-06T15:49:20.974Z,29.13
2023-04-06T15:51:48.630Z,29.42
2023-04-06T15:54:16.008Z,29.29
2023-04-06T15:56:43.065Z,29.73
2023-04-06T15:59:09.670Z,29.93
2023-04-06T16:01:36.369Z,29.80
2023-04-06T16:04:03.529Z,30.01
2023-04-06T16:06:32.289Z,30.18
2023-04-06T16:08:58.826Z,30.38
2023-04-06T16:11:26.222Z,30.45
2023-04-06T16:13:54.973Z,30.51
2023-04-06T16:16:22.264Z,31.38
2023-04-06T16:18:48.870Z,31.41
2023-04-06T16:21:18.807Z,31.21
2023-04-06T16:23:46.644Z,31.23
2023-04-06T16:26:18.176Z,31.43
2023-04-06T16:28:45.065Z,31.74
2023-04-06T16:31:21.278Z,31.83
2023-04-06T16:33:48.938Z,31.97
2023-04-06T16:36:21.496Z,32.06
2023-04-06T16:38:48.088Z,31.92
2023-04-06T16:41:16.127Z,32.07
2023-04-06T16:43:42.708Z,32.18
2023-04-06T16:46:09.474Z,32.20
2023-04-06T16:48:38.845Z,32.20
2023-04-06T16:51:11.400Z,32.42
2023-04-06T16:53:38.379Z,32.25
2023-04-06T16:56:05.623Z,32.54
2023-04-06T16:58:33.060Z,33.28
2023-04-06T17:01:02.666Z,32.71
2023-04-06T17:03:30.811Z,32.63
2023-04-06T17:05:57.626Z,32.75
2023-04-06T17:08:24.206Z,33.02
2023-04-06T17:10:59.274Z,32.92
2023-04-06T17:13:30.366Z,33.13
2023-04-06T17:16:00.152Z,33.17
2023-04-06T17:18:26.864Z,33.38
2023-04-06T17:20:53.596Z,33.42
2023-04-06T17:23:21.160Z,33.42
2023-04-06T17:25:47.767Z,33.47
2023-04-06T17:28:14.317Z,33.55
2023-04-06T17:30:42.683Z,33.66
2023-04-06T17:33:10.034Z,33.69
2023-04-06T17:35:36.762Z,33.73
2023-04-06T17:38:03.342Z,33.59
2023-04-06T17:40:30.406Z,33.72
2023-04-06T17:42:56.970Z,33.80
2023-04-06T17:45:23.516Z,33.66
2023-04-06T17:47:50.383Z,33.99
2023-04-06T17:50:17.025Z,33.92
2023-04-06T17:55:15.587Z,33.76
2023-04-06T17:57:46.593Z,33.88
2023-04-06T18:00:15.290Z,33.89
2023-04-06T18:02:42.020Z,34.10
2023-04-06T18:05:08.946Z,33.89
2023-04-06T18:07:36.857Z,33.87
2023-04-06T18:10:03.522Z,34.00
2023-04-06T18:12:30.138Z,34.19
2023-04-06T18:14:56.692Z,34.12
2023-04-06T18:17:23.358Z,34.12
2023-04-06T18:19:50.025Z,33.98
2023-04-06T18:22:16.675Z,34.09
2023-04-06T18:24:43.517Z,34.09
2023-04-06T18:27:11.369Z,34.18
2023-04-06T18:29:37.998Z,34.20
2023-04-06T18:32:05.723Z,34.14
2023-04-06T18:34:32.637Z,34.21
2023-04-06T18:37:01.534Z,34.14
2023-04-06T18:39:28.702Z,34.31
2023-04-06T18:41:55.968Z,34.29
2023-04-06T18:44:22.917Z,34.32
2023-04-06T18:46:51.046Z,34.27
2023-04-06T18:49:20.239Z,34.51
2023-04-06T18:51:46.965Z,34.50
2023-04-06T18:54:14.138Z,34.63
2023-04-06T18:56:42.139Z,34.49
2023-04-06T18:59:12.657Z,34.73
2023-04-06T19:01:46.257Z,34.76
2023-04-06T19:04:13.260Z,35.00
2023-04-06T19:06:40.397Z,34.89
2023-04-06T19:09:07.928Z,34.80
2023-04-06T19:11:36.631Z,34.89
2023-04-06T19:14:03.915Z,34.95
2023-04-06T19:16:31.107Z,34.84
2023-04-06T19:19:00.078Z,34.95
2023-04-06T19:21:27.682Z,35.07
2023-04-06T19:23:55.892Z,35.22
2023-04-06T19:26:23.831Z,35.19
2023-04-06T19:28:50.601Z,35.12
2023-04-06T19:31:18.238Z,35.24
2023-04-06T19:33:45.577Z,35.18
2023-04-06T19:36:12.539Z,35.23
2023-04-06T19:38:39.286Z,35.23
2023-04-06T19:41:06.106Z,35.45
2023-04-06T19:43:32.768Z,35.47
2023-04-06T19:45:59.615Z,35.46
2023-04-06T19:48:26.348Z,35.50
2023-04-06T19:50:53.537Z,35.54
2023-04-06T19:53:21.023Z,35.56
2023-04-06T19:55:47.756Z,35.60
2023-04-06T19:58:14.482Z,35.71
2023-04-06T20:00:41.203Z,35.61
2023-04-06T20:03:08.089Z,35.69
2023-04-06T20:05:34.960Z,35.76
2023-04-06T20:08:01.486Z,35.77
2023-04-06T20:10:28.080Z,35.93
2023-04-06T20:12:54.826Z,35.92
2023-04-06T20:15:23.111Z,35.95
2023-04-06T20:17:49.910Z,35.95
2023-04-06T20:20:16.570Z,36.17
2023-04-06T20:22:43.177Z,36.22
2023-04-06T20:25:11.396Z,36.13
2023-04-06T20:27:38.755Z,36.33
2023-04-06T20:30:05.673Z,36.24
2023-04-06T20:32:33.379Z,36.27
2023-04-06T20:35:00.024Z,36.31
2023-04-06T20:37:26.686Z,36.31
2023-04-06T20:39:53.279Z,36.41
2023-04-06T20:42:21.621Z,36.71
2023-04-06T20:44:48.243Z,36.55
2023-04-06T20:47:14.871Z,36.65
2023-04-06T20:49:41.458Z,36.69
2023-04-06T20:52:08.072Z,36.87
2023-04-06T20:54:34.648Z,36.76
2023-04-06T20:57:01.697Z,36.77
2023-04-06T20:59:28.299Z,36.95
2023-04-06T21:01:55.262Z,37.52
2023-04-06T21:04:22.848Z,37.06
2023-04-06T21:06:50.123Z,36.98
2023-04-06T21:09:16.864Z,37.08
2023-04-06T21:11:43.490Z,37.53
2023-04-06T21:14:10.343Z,37.50
2023-04-06T21:16:37.699Z,37.49
2023-04-06T21:19:04.327Z,37.63
2023-04-06T21:21:30.874Z,37.66
2023-04-06T21:23:58.518Z,37.68
2023-04-06T21:26:25.143Z,37.77
2023-04-06T21:28:51.769Z,37.79
2023-04-06T21:31:20.028Z,38.17
2023-04-06T21:33:47.069Z,38.31
2023-04-06T21:36:13.751Z,38.13
2023-04-06T21:38:40.345Z,38.06
2023-04-06T21:41:07.351Z,38.17
2023-04-06T21:43:34.059Z,38.39
2023-04-06T21:46:00.740Z,39.48
2023-04-06T21:48:27.398Z,38.58
2023-04-06T21:50:54.034Z,38.53
2023-04-06T21:53:20.643Z,38.46
2023-04-06T21:55:47.516Z,40.44
2023-04-06T21:58:14.738Z,38.84
2023-04-06T22:00:41.661Z,38.68
2023-04-06T22:03:08.436Z,38.74
2023-04-06T22:05:37.319Z,38.92
2023-04-06T22:08:04.070Z,38.79
2023-04-06T22:10:30.872Z,38.79
2023-04-06T22:12:57.500Z,39.10
2023-04-06T22:15:24.074Z,39.33
2023-04-06T22:17:50.879Z,40.02
2023-04-06T22:20:17.538Z,39.53
2023-04-06T22:22:44.409Z,39.76
2023-04-06T22:25:10.952Z,39.55
2023-04-06T22:27:37.484Z,39.51
2023-04-06T22:30:04.582Z,39.76
2023-04-06T22:32:31.226Z,40.01
2023-04-06T22:34:57.797Z,39.74
2023-04-06T22:37:24.551Z,39.85
2023-04-06T22:39:51.137Z,39.77
2023-04-06T22:42:17.680Z,41.57
2023-04-06T22:44:44.356Z,40.29
2023-04-06T22:47:11.019Z,40.19
2023-04-06T22:49:37.593Z,40.48
2023-04-06T22:52:04.166Z,40.39
2023-04-06T22:54:30.850Z,40.27
2023-04-06T22:56:57.521Z,40.41
2023-04-06T22:59:24.159Z,40.50
2023-04-06T23:01:50.867Z,40.52
2023-04-06T23:04:17.790Z,40.85
2023-04-06T23:06:44.732Z,40.64
2023-04-06T23:09:11.657Z,40.99
2023-04-06T23:11:38.277Z,40.80
2023-04-06T23:14:04.815Z,40.84
2023-04-06T23:16:31.443Z,40.66
2023-04-06T23:18:58.034Z,40.84
2023-04-06T23:21:24.668Z,40.92
2023-04-06T23:23:51.565Z,41.24
2023-04-06T23:26:18.149Z,41.53
2023-04-06T23:28:44.793Z,41.73
2023-04-06T23:31:13.636Z,41.55
2023-04-06T23:33:40.438Z,41.66
2023-04-06T23:36:07.190Z,41.53
2023-04-06T23:38:33.748Z,41.64
2023-04-06T23:41:00.557Z,44.49
2023-04-06T23:43:27.230Z,42.25
2023-04-06T23:45:53.964Z,41.76
2023-04-06T23:48:20.601Z,41.94
2023-04-06T23:50:48.521Z,41.94
2023-04-06T23:53:15.122Z,41.75
2023-04-06T23:55:41.751Z,41.74
2023-04-06T23:58:08.470Z,41.93
